createdAt,value
2022-11-22T00:03:23.400Z,7.70
2022-11-22T00:10:08.149Z,7.60
2022-11-22T00:16:50.447Z,7.70
2022-11-22T00:23:32.738Z,7.90
2022-11-22T00:30:15.357Z,7.90
2022-11-22T00:36:57.723Z,7.80
2022-11-22T00:43:40.120Z,7.50
2022-11-22T00:50:22.435Z,7.40
2022-11-22T00:57:05.284Z,7.40
2022-11-22T01:03:48.000Z,7.50
2022-11-22T01:10:30.507Z,7.60
2022-11-22T01:17:12.821Z,7.60
2022-11-22T01:23:55.153Z,7.50
2022-11-22T01:30:37.774Z,7.50
2022-11-22T01:37:20.137Z,7.60
2022-11-22T01:44:19.026Z,7.80
2022-11-22T01:51:22.777Z,8.00
2022-11-22T01:58:05.197Z,8.10
2022-11-22T02:04:49.784Z,8.30
2022-11-22T02:11:34.394Z,8.20
2022-11-22T02:18:17.350Z,8.30
2022-11-22T02:25:08.601Z,8.40
2022-11-22T02:31:50.955Z,8.50
2022-11-22T02:38:35.326Z,8.70
2022-11-22T02:45:17.738Z,8.40
2022-11-22T02:52:00.106Z,8.20
2022-11-22T02:58:43.741Z,8.10
2022-11-22T03:05:26.205Z,7.90
2022-11-22T03:12:08.681Z,7.80
2022-11-22T03:18:51.003Z,7.70
2022-11-22T03:25:36.294Z,7.60
2022-11-22T03:32:18.756Z,7.60
2022-11-22T03:39:01.178Z,7.60
2022-11-22T03:45:47.325Z,7.50
2022-11-22T03:52:29.673Z,7.50
2022-11-22T03:59:12.047Z,7.60
2022-11-22T04:05:54.419Z,7.60
2022-11-22T04:12:36.761Z,7.70
2022-11-22T04:19:19.054Z,7.60
2022-11-22T04:26:01.552Z,7.60
2022-11-22T04:32:46.886Z,7.50
2022-11-22T04:39:29.516Z,7.50
2022-11-22T04:46:13.605Z,7.50
2022-11-22T04:52:57.410Z,7.50
2022-11-22T04:59:39.993Z,7.30
2022-11-22T05:06:22.410Z,7.20
2022-11-22T05:13:05.514Z,7.00
2022-11-22T05:19:49.268Z,6.80
2022-11-22T05:26:34.684Z,6.60
2022-11-22T05:33:16.979Z,6.50
2022-11-22T05:39:59.320Z,6.50
2022-11-22T05:46:41.666Z,6.40
2022-11-22T05:53:23.972Z,6.50
2022-11-22T06:00:07.108Z,6.70
2022-11-22T06:06:54.316Z,6.90
2022-11-22T06:13:38.699Z,7.00
2022-11-22T06:20:21.063Z,7.20
2022-11-22T06:27:03.425Z,7.10
2022-11-22T06:33:46.118Z,7.00
2022-11-22T06:40:28.536Z,6.80
2022-11-22T06:47:11.589Z,6.80
2022-11-22T06:53:55.361Z,6.90
2022-11-22T07:00:37.738Z,7.10
2022-11-22T07:07:20.208Z,7.10
2022-11-22T07:14:08.393Z,6.90
2022-11-22T07:20:51.675Z,6.80
2022-11-22T07:27:34.061Z,6.90
2022-11-22T07:34:16.455Z,7.00
2022-11-22T07:40:58.806Z,7.20
2022-11-22T07:47:41.207Z,7.30
2022-11-22T07:54:23.563Z,7.40
2022-11-22T08:01:11.581Z,7.60
2022-11-22T08:07:54.275Z,7.70
2022-11-22T08:14:36.956Z,7.80
2022-11-22T08:21:19.476Z,7.90
2022-11-22T08:28:01.801Z,8.00
2022-11-22T08:34:47.170Z,8.20
2022-11-22T08:41:29.858Z,8.40
2022-11-22T08:48:12.244Z,8.50
2022-11-22T08:54:54.661Z,8.90
2022-11-22T09:01:37.086Z,9.20
2022-11-22T09:08:22.460Z,9.50
2022-11-22T09:15:05.341Z,9.70
2022-11-22T09:21:47.665Z,10.00
2022-11-22T09:28:30.068Z,10.20
2022-11-22T09:35:12.590Z,10.30
2022-11-22T09:42:15.872Z,10.30
2022-11-22T09:49:35.951Z,10.30
2022-11-22T09:56:22.764Z,10.40
2022-11-22T10:03:16.942Z,10.50
2022-11-22T10:10:24.521Z,10.20
2022-11-22T10:17:36.682Z,9.80
2022-11-22T10:24:19.782Z,9.70
2022-11-22T10:31:12.092Z,9.80
2022-11-22T10:37:59.774Z,9.90
2022-11-22T10:45:16.364Z,9.90
2022-11-22T10:52:40.426Z,10.10
2022-11-22T10:59:28.721Z,10.10
2022-11-22T11:13:52.624Z,9.60
2022-11-22T11:20:38.405Z,9.90
2022-11-22T11:27:21.994Z,10.00
2022-11-22T11:34:27.616Z,10.00
2022-11-22T11:41:32.123Z,10.20
2022-11-22T11:48:41.193Z,10.40
2022-11-22T11:55:23.790Z,10.20
2022-11-22T12:02:22.429Z,10.50
2022-11-22T12:09:28.757Z,10.50
2022-11-22T12:16:22.230Z,10.30
2022-11-22T12:23:32.983Z,10.50
2022-11-22T12:30:16.200Z,10.70
2022-11-22T12:37:17.115Z,10.40
2022-11-22T12:44:02.693Z,10.60
2022-11-22T12:50:53.413Z,10.70
2022-11-22T12:57:58.743Z,10.60
2022-11-22T13:05:01.548Z,10.40
2022-11-22T13:11:57.835Z,10.50
2022-11-22T13:19:02.674Z,10.30
2022-11-22T13:26:05.273Z,10.50
2022-11-22T13:32:52.708Z,10.40
2022-11-22T13:39:40.701Z,10.50
2022-11-22T13:46:51.834Z,10.60
2022-11-22T13:53:37.826Z,10.40
2022-11-22T14:00:21.638Z,10.30
2022-11-22T14:07:34.779Z,10.30
2022-11-22T14:14:29.077Z,10.40
2022-11-22T14:21:17.558Z,10.20
2022-11-22T14:28:30.483Z,10.20
2022-11-22T14:35:30.107Z,10.10
2022-11-22T14:42:43.270Z,9.90
2022-11-22T14:49:33.153Z,10.00
2022-11-22T14:56:30.990Z,9.90
2022-11-22T15:03:41.724Z,9.70
2022-11-22T15:10:45.767Z,9.70
2022-11-22T15:59:56.865Z,9.30
2022-11-22T16:06:39.224Z,9.30
2022-11-22T16:13:21.535Z,9.30
2022-11-22T16:20:22.293Z,9.20
2022-11-22T16:27:14.702Z,9.20
2022-11-22T16:33:58.179Z,9.20
2022-11-22T16:40:43.327Z,9.30
2022-11-22T16:47:25.654Z,9.30
2022-11-22T16:54:12.732Z,9.30
2022-11-22T17:00:55.801Z,9.30
2022-11-22T17:07:38.242Z,9.40
2022-11-22T17:14:20.669Z,9.30
2022-11-22T17:21:05.227Z,9.40
2022-11-22T17:27:52.928Z,9.50
2022-11-22T17:34:36.555Z,9.60
2022-11-22T17:41:19.186Z,9.60
2022-11-22T17:48:01.509Z,9.60
2022-11-22T17:54:43.818Z,9.40
2022-11-22T18:01:26.163Z,9.40
2022-11-22T18:08:08.499Z,9.30
2022-11-22T18:14:50.917Z,9.30
2022-11-22T18:21:33.297Z,9.30
2022-11-22T18:28:16.076Z,9.30
2022-11-22T18:34:58.425Z,9.20
2022-11-22T18:41:40.877Z,9.20
2022-11-22T18:48:23.199Z,9.00
2022-11-22T18:55:07.166Z,9.00
2022-11-22T19:01:49.572Z,9.00
2022-11-22T19:08:35.459Z,9.00
2022-11-22T19:15:18.186Z,9.00
2022-11-22T19:22:02.321Z,8.90
2022-11-22T19:28:44.983Z,8.80
2022-11-22T19:35:28.861Z,8.90
2022-11-22T19:42:11.615Z,8.90
2022-11-22T19:48:55.968Z,9.50
2022-11-22T19:55:45.092Z,8.40
2022-11-22T20:02:28.055Z,8.80
2022-11-22T20:09:12.476Z,8.90
2022-11-22T20:15:55.830Z,8.90
2022-11-22T20:22:38.438Z,8.80
2022-11-22T20:29:23.021Z,8.90
2022-11-22T20:36:13.955Z,8.80
2022-11-22T20:42:56.494Z,8.50
2022-11-22T20:49:45.194Z,8.40
2022-11-22T20:56:27.937Z,8.20
2022-11-22T21:03:10.708Z,8.10
2022-11-22T21:09:53.159Z,7.90
2022-11-22T21:16:35.747Z,7.80
2022-11-22T21:23:18.132Z,7.80
2022-11-22T21:30:00.763Z,7.90
2022-11-22T21:36:43.167Z,7.90
2022-11-22T21:43:26.657Z,7.80
2022-11-22T21:50:19.344Z,7.60
2022-11-22T21:57:03.045Z,7.50
2022-11-22T22:03:45.678Z,7.30
2022-11-22T22:10:28.368Z,7.20
2022-11-22T22:17:10.832Z,7.10
2022-11-22T22:23:54.397Z,7.00
2022-11-22T22:30:36.933Z,7.00
2022-11-22T22:37:19.659Z,7.00
2022-11-22T22:44:02.094Z,6.90
2022-11-22T22:50:44.745Z,6.80
2022-11-22T22:57:27.171Z,6.80
2022-11-22T23:04:09.945Z,6.70
2022-11-22T23:10:52.311Z,6.60
2022-11-22T23:17:34.795Z,6.50
2022-11-22T23:24:17.698Z,6.40
2022-11-22T23:31:12.082Z,6.40
2022-11-22T23:38:10.646Z,6.30
2022-11-22T23:51:59.560Z,6.20
2022-11-22T23:58:42.953Z,6.00
